createdAt,value
2018-06-27T00:00:02.941Z,76.88
2018-06-27T00:00:43.430Z,76.59
2018-06-27T00:01:23.948Z,76.78
2018-06-27T00:02:04.478Z,76.59
2018-06-27T00:02:44.991Z,76.88
2018-06-27T00:03:25.514Z,76.78
2018-06-27T00:04:06.035Z,76.59
2018-06-27T00:04:46.555Z,76.78
2018-06-27T00:05:27.068Z,77.17
2018-06-27T00:06:07.589Z,77.26
2018-06-27T00:06:48.115Z,77.17
2018-06-27T00:07:28.660Z,77.46
2018-06-27T00:08:09.193Z,77.61
2018-06-27T00:08:49.709Z,77.42
2018-06-27T00:09:30.243Z,77.33
2018-06-27T00:10:10.758Z,77.61
2018-06-27T00:10:51.309Z,77.36
2018-06-27T00:11:31.837Z,77.07
2018-06-27T00:12:12.356Z,76.78
2018-06-27T00:12:52.873Z,77.26
2018-06-27T00:13:33.410Z,77.07
2018-06-27T00:14:13.931Z,76.98
2018-06-27T00:14:54.463Z,77.33
2018-06-27T00:15:34.978Z,76.93
2018-06-27T00:16:15.500Z,77.13
2018-06-27T00:16:56.020Z,77.61
2018-06-27T00:17:36.552Z,77.71
2018-06-27T00:18:17.072Z,77.71
2018-06-27T00:18:57.605Z,77.42
2018-06-27T00:19:38.138Z,77.42
2018-06-27T00:20:18.660Z,77.33
2018-06-27T00:20:59.185Z,77.03
2018-06-27T00:21:39.701Z,77.13
2018-06-27T00:22:20.226Z,77.42
2018-06-27T00:23:00.745Z,77.51
2018-06-27T00:23:41.269Z,76.93
2018-06-27T00:24:21.801Z,77.23
2018-06-27T00:25:02.324Z,77.33
2018-06-27T00:25:42.863Z,77.51
2018-06-27T00:26:23.388Z,76.84
2018-06-27T00:27:03.895Z,77.42
2018-06-27T00:27:44.419Z,77.42
2018-06-27T00:28:24.935Z,77.26
2018-06-27T00:29:05.464Z,77.23
2018-06-27T00:29:45.979Z,77.23
2018-06-27T00:30:26.509Z,77.03
2018-06-27T00:31:07.039Z,77.51
2018-06-27T00:31:47.558Z,78
2018-06-27T00:32:28.089Z,77.51
2018-06-27T00:33:08.626Z,77.51
2018-06-27T00:33:49.192Z,77.9
2018-06-27T00:34:29.666Z,77.42
2018-06-27T00:35:10.178Z,77.71
2018-06-27T00:35:50.791Z,77.71
2018-06-27T00:36:31.308Z,77.42
2018-06-27T00:37:11.828Z,77.61
2018-06-27T00:37:52.359Z,77.51
2018-06-27T00:38:32.896Z,78.29
2018-06-27T00:39:13.429Z,78.29
2018-06-27T00:39:53.947Z,77.42
2018-06-27T00:40:34.466Z,77.9
2018-06-27T00:41:14.992Z,77.51
2018-06-27T00:41:55.530Z,77.61
2018-06-27T00:42:36.079Z,78.48
2018-06-27T00:43:16.623Z,78.09
2018-06-27T00:43:57.139Z,77.9
2018-06-27T00:44:37.653Z,77.81
2018-06-27T00:45:18.187Z,78.19
2018-06-27T00:45:58.701Z,77.81
2018-06-27T00:46:39.229Z,77.71
2018-06-27T00:47:19.750Z,77.51
2018-06-27T00:48:00.273Z,77.71
2018-06-27T00:48:40.817Z,77.71
2018-06-27T00:49:21.353Z,77.51
2018-06-27T00:50:01.877Z,77.51
2018-06-27T00:50:42.416Z,77.71
2018-06-27T00:51:22.922Z,77.42
2018-06-27T00:52:03.439Z,77.51
2018-06-27T00:52:43.955Z,77.61
2018-06-27T00:53:24.490Z,76.84
2018-06-27T00:54:05.026Z,77.51
2018-06-27T00:54:45.555Z,77.81
2018-06-27T00:55:26.079Z,77.71
2018-06-27T00:56:06.590Z,77.51
2018-06-27T00:56:47.127Z,78
2018-06-27T00:57:27.646Z,78.29
2018-06-27T00:58:08.173Z,77.71
2018-06-27T00:58:48.705Z,77.9
2018-06-27T00:59:29.218Z,78.19
2018-06-27T01:00:09.740Z,77.9
2018-06-27T01:00:50.248Z,77.9
2018-06-27T01:01:30.774Z,77.9
2018-06-27T01:02:11.440Z,78.29
2018-06-27T01:02:51.973Z,78
2018-06-27T01:03:32.494Z,77.61
2018-06-27T01:04:13.025Z,77.81
2018-06-27T01:04:53.536Z,78.48
2018-06-27T01:05:34.052Z,78.58
2018-06-27T01:06:14.569Z,78.48
2018-06-27T01:06:55.105Z,78.38
2018-06-27T01:07:35.639Z,78.73
2018-06-27T01:08:16.157Z,79.02
2018-06-27T01:08:56.681Z,78.73
2018-06-27T01:09:37.205Z,78.63
2018-06-27T01:10:17.730Z,78.96
2018-06-27T01:10:58.256Z,78.86
2018-06-27T01:11:38.773Z,78.73
2018-06-27T01:12:19.290Z,79.41
2018-06-27T01:12:59.826Z,79.11
2018-06-27T01:13:40.362Z,79.79
2018-06-27T01:14:20.887Z,79.79
2018-06-27T01:15:01.401Z,79.69
2018-06-27T01:15:41.920Z,79.69
2018-06-27T01:16:22.440Z,80.66
2018-06-27T01:17:02.962Z,80.18
2018-06-27T01:17:43.476Z,80.18
2018-06-27T01:18:24.004Z,80.08
2018-06-27T01:19:04.524Z,80.27
2018-06-27T01:19:45.045Z,80.81
2018-06-27T01:20:25.559Z,80.56
2018-06-27T01:21:06.084Z,80.91
2018-06-27T01:21:46.611Z,81.01
2018-06-27T01:22:27.130Z,81.2
2018-06-27T01:23:07.663Z,81.29
2018-06-27T01:23:48.163Z,81.24
2018-06-27T01:24:28.684Z,81.04
2018-06-27T01:25:09.208Z,80.91
2018-06-27T01:25:49.726Z,81.24
2018-06-27T01:26:30.264Z,81.01
2018-06-27T01:27:10.770Z,81.14
2018-06-27T01:29:29.148Z,80.23
2018-06-27T01:30:09.658Z,80.66
2018-06-27T01:30:50.177Z,80.81
2018-06-27T01:31:30.674Z,80.76
2018-06-27T01:32:11.204Z,80.56
2018-06-27T01:32:51.718Z,80.46
2018-06-27T01:33:32.259Z,80.37
2018-06-27T01:34:12.777Z,80.08
2018-06-27T01:34:53.315Z,80.27
2018-06-27T01:35:33.830Z,80.27
2018-06-27T01:36:14.347Z,80.08
2018-06-27T01:36:54.895Z,80.04
2018-06-27T01:37:35.422Z,80.52
2018-06-27T01:38:15.951Z,81.04
2018-06-27T01:38:56.453Z,80.76
2018-06-27T01:39:36.977Z,80.62
2018-06-27T01:40:17.489Z,81.43
2018-06-27T01:40:58.032Z,81.14
2018-06-27T01:41:38.549Z,81.04
2018-06-27T01:42:19.078Z,81.01
2018-06-27T01:42:59.622Z,81.2
2018-06-27T01:43:40.137Z,80.81
2018-06-27T01:44:20.657Z,81.1
2018-06-27T01:45:01.173Z,81.43
2018-06-27T01:45:41.707Z,81.24
2018-06-27T01:46:22.230Z,81.68
2018-06-27T01:47:02.765Z,81.39
2018-06-27T01:47:43.303Z,81.58
2018-06-27T01:48:23.852Z,81.48
2018-06-27T01:49:04.378Z,81.58
2018-06-27T01:49:44.918Z,81.68
2018-06-27T01:50:25.438Z,82.16
2018-06-27T01:51:06.007Z,81.87
2018-06-27T01:51:46.629Z,81.96
2018-06-27T01:52:26.962Z,81.87
2018-06-27T01:53:07.488Z,81.77
2018-06-27T01:53:47.962Z,81.68
2018-06-27T01:54:28.480Z,81.96
2018-06-27T01:55:08.978Z,82.06
2018-06-27T01:55:49.472Z,81.39
2018-06-27T01:56:30.002Z,81.68
2018-06-27T01:57:10.517Z,81.39
2018-06-27T01:57:51.038Z,81.58
2018-06-27T01:58:31.553Z,82.06
2018-06-27T01:59:12.061Z,82.06
2018-06-27T01:59:52.571Z,81.77
2018-06-27T02:00:33.105Z,81.77
2018-06-27T02:01:13.629Z,82.54
2018-06-27T02:01:54.146Z,82.54
2018-06-27T02:02:34.783Z,82.35
2018-06-27T02:03:15.282Z,82.45
2018-06-27T02:03:55.797Z,82.45
2018-06-27T02:04:36.315Z,82.93
2018-06-27T02:05:16.842Z,82.83
2018-06-27T02:05:57.371Z,82.74
2018-06-27T02:06:37.890Z,82.93
2018-06-27T02:07:18.407Z,82.83
2018-06-27T02:07:58.926Z,83.41
2018-06-27T02:08:39.443Z,83.31
2018-06-27T02:09:19.973Z,83.7
2018-06-27T02:10:00.494Z,83.31
2018-06-27T02:10:41.013Z,83.41
2018-06-27T02:11:21.543Z,83.61
2018-06-27T02:12:02.062Z,83.61
2018-06-27T02:12:42.589Z,83.03
2018-06-27T02:13:23.111Z,83.03
2018-06-27T02:14:03.644Z,83.31
2018-06-27T02:14:44.166Z,83.31
2018-06-27T02:15:24.712Z,83.61
2018-06-27T02:16:05.209Z,83.31
2018-06-27T02:16:45.689Z,83.47
2018-06-27T02:17:26.171Z,83.66
2018-06-27T02:18:06.686Z,83.8
2018-06-27T02:18:47.192Z,82.93
2018-06-27T02:19:27.698Z,83.03
2018-06-27T02:20:08.214Z,82.83
2018-06-27T02:20:48.737Z,83.03
2018-06-27T02:21:29.245Z,82.83
2018-06-27T02:22:09.774Z,82.74
2018-06-27T02:22:50.290Z,82.93
2018-06-27T02:23:30.808Z,83.03
2018-06-27T02:24:11.338Z,82.93
2018-06-27T02:24:51.857Z,82.83
2018-06-27T02:25:32.375Z,82.93
2018-06-27T02:26:12.935Z,82.93
2018-06-27T02:26:53.457Z,82.74
2018-06-27T02:27:34.088Z,82.83
2018-06-27T02:28:14.468Z,82.93
2018-06-27T02:28:54.996Z,82.93
2018-06-27T02:29:35.533Z,82.89
2018-06-27T02:30:15.982Z,83.7
2018-06-27T02:30:56.461Z,83.28
2018-06-27T02:31:36.988Z,83.56
2018-06-27T02:32:17.516Z,83.56
2018-06-27T02:32:58.026Z,83.37
2018-06-27T02:33:38.545Z,83.56
2018-06-27T02:34:19.059Z,83.56
2018-06-27T02:34:59.597Z,83.85
2018-06-27T02:35:40.121Z,83.56
2018-06-27T02:36:20.655Z,83.75
2018-06-27T02:37:01.184Z,84.05
2018-06-27T02:37:41.731Z,83.75
2018-06-27T02:38:22.247Z,83.66
2018-06-27T02:39:02.775Z,83.66
2018-06-27T02:39:43.293Z,83.56
2018-06-27T02:40:23.815Z,83.47
2018-06-27T02:41:04.347Z,82.79
2018-06-27T02:41:44.854Z,82.89
2018-06-27T02:42:25.382Z,83.18
2018-06-27T02:43:05.917Z,83.95
2018-06-27T02:43:46.435Z,82.6
2018-06-27T02:44:26.971Z,82.7
2018-06-27T02:45:07.479Z,82.5
2018-06-27T02:45:48.001Z,82.31
2018-06-27T02:46:28.528Z,82.6
2018-06-27T02:47:09.067Z,82.5
2018-06-27T02:47:49.601Z,82.6
2018-06-27T02:48:30.128Z,82.79
2018-06-27T02:49:10.627Z,82.31
2018-06-27T02:49:51.181Z,82.89
2018-06-27T02:50:31.675Z,82.98
2018-06-27T02:51:12.201Z,82.79
2018-06-27T02:51:52.686Z,82.79
2018-06-27T02:52:33.200Z,82.89
2018-06-27T02:53:13.727Z,82.79
2018-06-27T02:53:54.258Z,82.89
2018-06-27T02:54:34.791Z,82.98
2018-06-27T02:55:15.320Z,82.6
2018-06-27T02:55:55.850Z,82.6
2018-06-27T02:56:36.345Z,82.6
2018-06-27T02:57:16.852Z,83.18
2018-06-27T02:57:57.371Z,82.6
2018-06-27T02:58:37.853Z,82.79
2018-06-27T02:59:18.348Z,82.79
2018-06-27T02:59:58.877Z,82.98
2018-06-27T03:00:39.392Z,82.5
2018-06-27T03:01:19.903Z,82.79
2018-06-27T03:02:00.414Z,82.7
2018-06-27T03:02:40.948Z,82.41
2018-06-27T03:03:21.462Z,82.79
2018-06-27T03:04:01.981Z,82.6
2018-06-27T03:04:42.517Z,82.6
2018-06-27T03:05:23.030Z,82.94
2018-06-27T03:06:03.548Z,82.85
2018-06-27T03:06:44.069Z,82.7
2018-06-27T03:07:24.589Z,82.85
2018-06-27T03:08:05.104Z,82.75
2018-06-27T03:08:45.624Z,82.65
2018-06-27T03:09:26.144Z,82.94
2018-06-27T03:10:06.655Z,82.85
2018-06-27T03:10:47.189Z,82.27
2018-06-27T03:11:27.703Z,82.08
2018-06-27T03:12:08.242Z,82.65
2018-06-27T03:12:48.767Z,82.46
2018-06-27T03:13:29.245Z,82.56
2018-06-27T03:14:09.766Z,82.65
2018-06-27T03:14:50.285Z,83.23
2018-06-27T03:15:30.805Z,82.75
2018-06-27T03:16:11.318Z,82.85
2018-06-27T03:16:51.845Z,82.56
2018-06-27T03:17:32.364Z,83.72
2018-06-27T03:18:12.903Z,83.72
2018-06-27T03:18:53.424Z,83.81
2018-06-27T03:19:33.944Z,83.72
2018-06-27T03:20:14.469Z,83.52
2018-06-27T03:20:54.992Z,84.1
2018-06-27T03:21:35.494Z,83.96
2018-06-27T03:22:16.006Z,83.77
2018-06-27T03:22:56.522Z,83.96
2018-06-27T03:23:37.044Z,84.06
2018-06-27T03:24:17.572Z,83.96
2018-06-27T03:24:58.088Z,83.96
2018-06-27T03:25:38.615Z,84.25
2018-06-27T03:26:19.140Z,84.06
2018-06-27T03:26:59.656Z,83.96
2018-06-27T03:27:40.183Z,83.96
2018-06-27T03:28:20.719Z,84.44
2018-06-27T03:29:01.241Z,84.63
2018-06-27T03:29:41.763Z,84.44
2018-06-27T03:30:22.278Z,84.54
2018-06-27T03:31:02.812Z,84.92
2018-06-27T03:31:43.334Z,84.92
2018-06-27T03:32:23.830Z,84.54
2018-06-27T03:33:04.296Z,84.73
2018-06-27T03:33:44.841Z,84.92
2018-06-27T03:34:25.342Z,85.11
2018-06-27T03:35:05.871Z,84.73
2018-06-27T03:35:46.401Z,84.06
2018-06-27T03:36:27.030Z,84.44
2018-06-27T03:37:07.514Z,84.44
2018-06-27T03:37:47.978Z,84.16
2018-06-27T03:38:28.487Z,84.16
2018-06-27T03:39:08.995Z,84.54
2018-06-27T03:39:49.464Z,84.44
2018-06-27T03:40:29.974Z,84.34
2018-06-27T03:41:10.485Z,84.16
2018-06-27T03:41:51.008Z,84.73
2018-06-27T03:42:31.545Z,85.11
2018-06-27T03:43:12.075Z,84.16
2018-06-27T03:43:52.579Z,84.25
2018-06-27T03:44:33.095Z,83.67
2018-06-27T03:45:13.602Z,84.25
2018-06-27T03:45:54.081Z,83.86
2018-06-27T03:46:34.563Z,84
2018-06-27T03:47:15.059Z,83.42
2018-06-27T03:47:55.642Z,83.52
2018-06-27T03:48:36.124Z,83.72
2018-06-27T03:49:16.644Z,83.23
2018-06-27T03:49:57.158Z,82.46
2018-06-27T03:50:37.670Z,82.56
2018-06-27T03:51:18.185Z,82.56
2018-06-27T03:51:58.717Z,82.56
2018-06-27T03:52:39.220Z,83.04
2018-06-27T03:53:19.752Z,83.23
2018-06-27T03:54:00.276Z,82.65
2018-06-27T03:54:40.801Z,83.14
2018-06-27T03:55:21.316Z,82.94
2018-06-27T03:56:01.836Z,83.62
2018-06-27T03:56:42.367Z,83.52
2018-06-27T03:57:22.887Z,83.62
2018-06-27T03:58:03.402Z,83.62
2018-06-27T03:58:43.974Z,84
2018-06-27T03:59:24.470Z,83.23
2018-06-27T04:00:04.999Z,83.62
2018-06-27T04:00:45.483Z,82.56
2018-06-27T04:01:25.996Z,83.52
2018-06-27T04:02:06.602Z,83.81
2018-06-27T04:02:47.012Z,84.1
2018-06-27T04:03:27.580Z,83.72
2018-06-27T04:04:08.071Z,83.42
2018-06-27T04:04:48.552Z,83.91
2018-06-27T04:05:29.069Z,83.62
2018-06-27T04:06:09.588Z,83.72
2018-06-27T04:06:50.117Z,83.42
2018-06-27T04:07:30.638Z,82.85
2018-06-27T04:08:11.152Z,82.7
2018-06-27T04:08:51.685Z,81.93
2018-06-27T04:09:32.215Z,82.02
2018-06-27T04:10:12.762Z,82.21
2018-06-27T04:10:53.858Z,81.73
2018-06-27T04:11:34.368Z,82.12
2018-06-27T04:12:14.898Z,81.54
2018-06-27T04:12:55.524Z,81.93
2018-06-27T04:13:35.938Z,81.45
2018-06-27T04:14:16.464Z,82.12
2018-06-27T04:14:56.973Z,82.21
2018-06-27T04:15:37.503Z,81.45
2018-06-27T04:16:18.042Z,81.45
2018-06-27T04:16:58.555Z,82.12
2018-06-27T04:17:39.078Z,81.83
2018-06-27T04:18:19.602Z,81.83
2018-06-27T04:19:00.149Z,82.02
2018-06-27T04:19:40.670Z,82.27
2018-06-27T04:20:21.190Z,82.46
2018-06-27T04:21:01.724Z,81.79
2018-06-27T04:21:42.237Z,81.73
2018-06-27T04:22:22.761Z,81.25
2018-06-27T04:23:03.301Z,81.25
2018-06-27T04:23:43.844Z,81.35
2018-06-27T04:24:24.368Z,82.17
2018-06-27T04:25:04.910Z,81.88
2018-06-27T04:25:45.420Z,81.88
2018-06-27T04:26:25.911Z,82.37
2018-06-27T04:27:06.409Z,82.27
2018-06-27T04:27:46.952Z,81.5
2018-06-27T04:28:27.439Z,81.88
2018-06-27T04:29:07.982Z,81.88
2018-06-27T04:29:48.536Z,81.79
2018-06-27T04:30:28.955Z,81.7
2018-06-27T04:31:09.470Z,82.08
2018-06-27T04:31:49.995Z,81.88
2018-06-27T04:32:30.535Z,81.45
2018-06-27T04:33:11.058Z,81.06
2018-06-27T04:33:51.583Z,81.63
2018-06-27T04:34:32.112Z,81.6
2018-06-27T04:35:12.642Z,81.88
2018-06-27T04:35:53.206Z,82.08
2018-06-27T04:36:33.687Z,81.12
2018-06-27T04:37:14.209Z,81.88
2018-06-27T04:37:54.745Z,81.79
2018-06-27T04:38:35.265Z,82.08
2018-06-27T04:39:15.775Z,81.5
2018-06-27T04:39:56.296Z,80.96
2018-06-27T04:40:36.837Z,81.25
2018-06-27T04:41:17.354Z,80.68
2018-06-27T04:41:57.895Z,80.68
2018-06-27T04:42:38.437Z,80.87
2018-06-27T04:43:18.994Z,80.58
2018-06-27T04:43:59.489Z,80.43
2018-06-27T04:44:40.024Z,79.08
2018-06-27T04:45:20.547Z,77.03
2018-06-27T04:46:01.068Z,73.67
2018-06-27T04:46:41.598Z,70.36
2018-06-27T04:47:22.135Z,68.49
2018-06-27T04:48:02.648Z,67.24
2018-06-27T04:48:43.177Z,67.24
2018-06-27T04:49:23.731Z,68.17
2018-06-27T04:50:04.231Z,69.74
2018-06-27T04:50:44.752Z,70.97
2018-06-27T04:51:25.280Z,72.96
2018-06-27T04:52:05.804Z,73.41
2018-06-27T04:52:46.319Z,74.62
2018-06-27T04:53:26.834Z,75.55
2018-06-27T04:54:07.376Z,76.23
2018-06-27T04:54:47.918Z,77.09
2018-06-27T04:55:28.416Z,76.51
2018-06-27T04:56:08.931Z,76.51
2018-06-27T04:56:49.452Z,76.51
2018-06-27T04:57:29.989Z,76.71
2018-06-27T04:58:10.511Z,75.78
2018-06-27T04:58:51.030Z,75.01
2018-06-27T04:59:31.545Z,73.99
2018-06-27T05:00:12.067Z,74.33
2018-06-27T05:00:52.599Z,75.3
2018-06-27T05:01:33.127Z,75.65
2018-06-27T05:02:13.638Z,76.42
2018-06-27T05:02:54.162Z,76.51
2018-06-27T05:03:34.691Z,76.13
2018-06-27T05:04:15.220Z,76.23
2018-06-27T05:04:55.753Z,76.13
2018-06-27T05:05:36.276Z,76.65
2018-06-27T05:06:16.795Z,76.03
2018-06-27T05:06:57.303Z,76.17
2018-06-27T05:07:37.844Z,76.71
2018-06-27T05:08:18.304Z,76.32
2018-06-27T05:08:58.806Z,76.71
2018-06-27T05:09:39.322Z,76.8
2018-06-27T05:10:19.871Z,76.61
2018-06-27T05:11:00.313Z,76.42
2018-06-27T05:11:40.895Z,77.19
2018-06-27T05:12:21.344Z,77.58
2018-06-27T05:14:24.126Z,77.19
2018-06-27T05:16:15.039Z,77.63
2018-06-27T05:16:55.547Z,78.4
2018-06-27T05:17:36.035Z,77.83
2018-06-27T05:18:16.540Z,78.31
2018-06-27T05:18:57.021Z,78.15
2018-06-27T05:19:37.536Z,76.36
2018-06-27T05:20:18.051Z,74.27
2018-06-27T05:20:58.556Z,73.93
2018-06-27T05:21:39.083Z,73.35
2018-06-27T05:22:19.623Z,74.24
2018-06-27T05:23:00.127Z,75.1
2018-06-27T05:23:40.651Z,76.36
2018-06-27T05:24:21.171Z,82.14
2018-06-27T05:25:01.672Z,87.93
2018-06-27T05:25:42.188Z,89.28
2018-06-27T05:26:22.712Z,87.88
2018-06-27T05:27:03.218Z,84.12
2018-06-27T05:27:43.863Z,82.59
2018-06-27T05:28:24.254Z,83.69
2018-06-27T05:29:04.775Z,79.24
2018-06-27T05:29:45.309Z,77.96
2018-06-27T05:30:25.837Z,73.78
2018-06-27T05:31:06.370Z,74.46
2018-06-27T05:31:46.913Z,73.9
2018-06-27T05:32:27.466Z,77.44
2018-06-27T05:33:07.984Z,80
2018-06-27T05:33:48.480Z,80.06
2018-06-27T05:34:29.025Z,81.12
2018-06-27T05:35:09.548Z,79.68
2018-06-27T05:35:50.302Z,83.73
2018-06-27T05:36:30.816Z,86.33
2018-06-27T05:37:11.338Z,83.59
2018-06-27T05:37:51.839Z,85.91
2018-06-27T05:38:32.356Z,85.52
2018-06-27T05:39:12.898Z,81.09
2018-06-27T05:39:53.420Z,80.02
2018-06-27T05:40:33.951Z,82.97
2018-06-27T05:41:14.480Z,82.34
2018-06-27T05:41:55.004Z,80.6
2018-06-27T05:42:35.503Z,80.02
2018-06-27T05:43:16.040Z,81.27
2018-06-27T05:43:56.567Z,80.51
2018-06-27T05:44:37.092Z,79.98
2018-06-27T05:45:17.613Z,79.89
2018-06-27T05:45:58.144Z,83.84
2018-06-27T05:46:38.695Z,85.67
2018-06-27T05:47:19.238Z,82.97
2018-06-27T05:47:59.761Z,80.56
2018-06-27T05:48:40.269Z,79.89
2018-06-27T05:49:20.799Z,81.33
2018-06-27T05:50:01.331Z,81.81
2018-06-27T05:50:41.854Z,85.28
2018-06-27T05:51:22.360Z,84.03
2018-06-27T05:52:02.902Z,84.9
2018-06-27T05:52:43.435Z,83.74
2018-06-27T05:53:23.979Z,84.32
2018-06-27T05:54:04.438Z,84.9
2018-06-27T05:54:44.939Z,84.52
2018-06-27T05:55:25.476Z,83.74
2018-06-27T05:56:05.965Z,85.28
2018-06-27T05:56:46.473Z,83.07
2018-06-27T05:57:26.946Z,84.7
2018-06-27T05:58:07.541Z,84.42
2018-06-27T05:58:47.988Z,85.19
2018-06-27T05:59:28.511Z,83.74
2018-06-27T06:00:09.032Z,81.43
2018-06-27T06:00:49.561Z,80.79
2018-06-27T06:01:30.104Z,82.34
2018-06-27T06:02:10.622Z,82.57
2018-06-27T06:02:51.140Z,82.57
2018-06-27T06:03:31.668Z,82.9
2018-06-27T06:04:12.187Z,82.9
2018-06-27T06:04:52.700Z,81.49
2018-06-27T06:05:33.417Z,77.83
2018-06-27T06:06:13.775Z,82.69
2018-06-27T06:06:54.332Z,82.98
2018-06-27T06:07:34.853Z,82.89
2018-06-27T06:08:15.356Z,80.08
2018-06-27T06:08:55.879Z,75.84
2018-06-27T06:09:36.397Z,76.84
2018-06-27T06:10:16.926Z,79.39
2018-06-27T06:10:57.455Z,81.81
2018-06-27T06:11:38.013Z,76.78
2018-06-27T06:12:18.484Z,75.62
2018-06-27T06:12:59.014Z,76.72
2018-06-27T06:13:39.554Z,80.88
2018-06-27T06:14:20.074Z,80.4
2018-06-27T06:15:00.572Z,78.08
2018-06-27T06:15:41.099Z,72.33
2018-06-27T06:16:21.614Z,76.72
2018-06-27T06:17:02.149Z,79.33
2018-06-27T06:17:42.668Z,82.33
2018-06-27T06:18:23.195Z,76.04
2018-06-27T06:19:03.714Z,72.89
2018-06-27T06:19:44.299Z,72.4
2018-06-27T06:20:24.761Z,73.47
2018-06-27T06:21:05.290Z,68.91
2018-06-27T06:21:45.829Z,67.27
2018-06-27T06:22:26.360Z,65.92
2018-06-27T06:23:06.907Z,65.92
2018-06-27T06:23:47.397Z,65.53
2018-06-27T06:24:27.921Z,65.66
2018-06-27T06:25:08.437Z,64.69
2018-06-27T06:25:48.962Z,70.21
2018-06-27T06:26:29.479Z,68.47
2018-06-27T06:27:10.016Z,71.47
2018-06-27T06:27:50.543Z,74.22
2018-06-27T06:28:31.063Z,74.22
2018-06-27T06:29:11.591Z,74.28
2018-06-27T06:29:52.362Z,71.28
2018-06-27T06:30:32.881Z,69.67
2018-06-27T06:31:13.433Z,70.25
2018-06-27T06:31:53.967Z,65.3
2018-06-27T06:32:34.537Z,64.92
2018-06-27T06:33:15.027Z,65.43
2018-06-27T06:33:55.538Z,64.62
2018-06-27T06:34:36.067Z,70.15
2018-06-27T06:35:16.594Z,74.74
2018-06-27T06:35:57.128Z,73.58
2018-06-27T06:36:37.650Z,67.05
2018-06-27T06:37:18.177Z,66.4
2018-06-27T06:37:58.720Z,68.73
2018-06-27T06:38:39.283Z,69.76
2018-06-27T06:39:19.802Z,67.24
2018-06-27T06:40:00.320Z,68.7
2018-06-27T06:40:40.846Z,67.18
2018-06-27T06:41:21.371Z,65.34
2018-06-27T06:42:01.896Z,66.89
2018-06-27T06:42:42.458Z,66.89
2018-06-27T06:43:22.974Z,65.72
2018-06-27T06:44:03.490Z,67.18
2018-06-27T06:44:44.026Z,64.65
2018-06-27T06:45:24.553Z,71.5
2018-06-27T06:46:05.100Z,68.3
2018-06-27T06:46:45.604Z,64.82
2018-06-27T06:47:26.103Z,68.5
2018-06-27T06:48:06.617Z,70.7
2018-06-27T06:48:47.145Z,71.37
2018-06-27T06:49:27.679Z,69.63
2018-06-27T06:50:08.207Z,71.66
2018-06-27T06:50:48.725Z,69.24
2018-06-27T06:51:29.245Z,74.18
2018-06-27T06:52:09.822Z,72.15
2018-06-27T06:52:50.360Z,73.6
2018-06-27T06:53:30.866Z,68.37
2018-06-27T06:54:11.443Z,66.14
2018-06-27T06:54:51.966Z,72.44
2018-06-27T06:55:32.490Z,72.24
2018-06-27T06:56:13.020Z,72.24
2018-06-27T06:56:53.574Z,73.54
2018-06-27T06:57:34.133Z,75.38
2018-06-27T06:58:14.641Z,78.09
2018-06-27T06:58:55.171Z,75.19
2018-06-27T06:59:35.698Z,69.37
2018-06-27T07:00:16.253Z,74.12
2018-06-27T07:00:56.771Z,75.42
2018-06-27T07:01:37.318Z,76.93
2018-06-27T07:02:17.856Z,74.02
2018-06-27T07:02:58.366Z,77.06
2018-06-27T07:03:38.985Z,79.97
2018-06-27T07:04:19.450Z,80.32
2018-06-27T07:05:00.059Z,76.06
2018-06-27T07:05:40.500Z,76.64
2018-06-27T07:06:21.009Z,76.15
2018-06-27T07:07:01.530Z,76.78
2018-06-27T07:07:42.055Z,69.99
2018-06-27T07:08:22.604Z,76.39
2018-06-27T07:09:03.132Z,78.81
2018-06-27T07:09:43.667Z,75.32
2018-06-27T07:10:24.194Z,72.89
2018-06-27T07:11:04.836Z,75.32
2018-06-27T07:11:45.294Z,76.97
2018-06-27T07:12:25.824Z,71.44
2018-06-27T07:13:06.362Z,69.44
2018-06-27T07:13:46.913Z,67.31
2018-06-27T07:14:27.455Z,74.58
2018-06-27T07:15:07.979Z,74.1
2018-06-27T07:15:48.523Z,67.4
2018-06-27T07:16:29.044Z,76.91
2018-06-27T07:17:09.580Z,80.4
2018-06-27T07:17:50.166Z,82.63
2018-06-27T07:18:30.653Z,77.88
2018-06-27T07:19:11.177Z,70.7
2018-06-27T07:19:51.678Z,74.77
2018-06-27T07:20:32.204Z,75.9
2018-06-27T07:21:12.733Z,73.8
2018-06-27T07:21:53.285Z,76.14
2018-06-27T07:22:33.808Z,70.64
2018-06-27T07:23:14.336Z,64.59
2018-06-27T07:23:54.857Z,66.53
2018-06-27T07:24:35.394Z,71.22
2018-06-27T07:25:15.933Z,71.32
2018-06-27T07:25:56.468Z,72.29
2018-06-27T07:26:36.996Z,69.38
2018-06-27T07:27:17.523Z,69.18
2018-06-27T07:27:58.065Z,65.79
2018-06-27T07:28:38.607Z,63.75
2018-06-27T07:29:19.134Z,64.78
2018-06-27T07:29:59.672Z,66.95
2018-06-27T07:30:40.164Z,64.72
2018-06-27T07:31:20.697Z,64.92
2018-06-27T07:32:01.226Z,70.35
2018-06-27T07:32:41.745Z,69.18
2018-06-27T07:33:22.271Z,66.95
2018-06-27T07:34:02.799Z,66.08
2018-06-27T07:34:43.329Z,67.24
2018-06-27T07:35:23.863Z,66.08
2018-06-27T07:36:04.516Z,65.5
2018-06-27T07:36:44.975Z,62.46
2018-06-27T07:37:25.494Z,65.01
2018-06-27T07:38:06.022Z,65.98
2018-06-27T07:38:46.559Z,65.98
2018-06-27T07:39:27.107Z,66.95
2018-06-27T07:40:07.646Z,67.63
2018-06-27T07:40:48.180Z,71.51
2018-06-27T07:41:28.718Z,70.15
2018-06-27T07:42:09.246Z,68.79
2018-06-27T07:42:49.758Z,66.08
2018-06-27T07:43:30.303Z,63.26
2018-06-27T07:44:10.845Z,70.06
2018-06-27T07:44:51.415Z,72.39
2018-06-27T07:45:31.938Z,75.1
2018-06-27T07:46:12.466Z,73.71
2018-06-27T07:46:52.984Z,76.04
2018-06-27T07:47:33.522Z,75.45
2018-06-27T07:48:14.050Z,69.06
2018-06-27T07:48:54.568Z,64.59
2018-06-27T07:49:35.116Z,64.92
2018-06-27T07:50:15.631Z,69.96
2018-06-27T07:50:56.157Z,64.82
2018-06-27T07:51:36.690Z,65.5
2018-06-27T07:52:17.231Z,68.21
2018-06-27T07:52:57.768Z,67.24
2018-06-27T07:53:38.293Z,73.16
2018-06-27T07:54:18.823Z,73.74
2018-06-27T07:54:59.353Z,73.74
2018-06-27T07:55:39.896Z,73.46
2018-06-27T07:56:20.441Z,74.13
2018-06-27T07:57:00.955Z,65.5
2018-06-27T07:57:41.473Z,63.56
2018-06-27T07:58:22.005Z,67.44
2018-06-27T07:59:02.530Z,73.36
2018-06-27T07:59:43.056Z,71.45
2018-06-27T08:00:23.585Z,65.11
2018-06-27T08:01:04.112Z,70.83
2018-06-27T08:01:44.667Z,73.94
2018-06-27T08:02:25.202Z,74.33
2018-06-27T08:03:05.750Z,74.97
2018-06-27T08:03:46.276Z,65.85
2018-06-27T08:04:26.798Z,66.82
2018-06-27T08:05:07.341Z,64.43
2018-06-27T08:05:47.923Z,62.39
2018-06-27T08:06:28.413Z,60.84
2018-06-27T08:07:08.961Z,65.69
2018-06-27T08:07:49.511Z,69.48
2018-06-27T08:08:30.045Z,71.03
2018-06-27T08:09:10.578Z,67.83
2018-06-27T08:09:51.099Z,68.51
2018-06-27T08:10:31.644Z,65.89
2018-06-27T08:11:12.172Z,60.94
2018-06-27T08:11:52.730Z,59.94
2018-06-27T08:12:33.309Z,63.95
2018-06-27T08:13:13.818Z,65.2
2018-06-27T08:13:54.338Z,65.17
2018-06-27T08:14:34.869Z,67.24
2018-06-27T08:15:15.407Z,68.7
2018-06-27T08:15:56.032Z,68.21
2018-06-27T08:16:36.569Z,65.3
2018-06-27T08:17:17.121Z,67.6
2018-06-27T08:17:57.814Z,63.17
2018-06-27T08:18:38.187Z,62.29
2018-06-27T08:19:18.714Z,67.21
2018-06-27T08:19:59.249Z,73.32
2018-06-27T08:20:39.796Z,71.58
2018-06-27T08:21:20.322Z,65.79
2018-06-27T08:22:00.848Z,71.58
2018-06-27T08:22:41.389Z,64.5
2018-06-27T08:23:21.902Z,65.66
2018-06-27T08:24:02.433Z,71.38
2018-06-27T08:24:42.982Z,72.77
2018-06-27T08:25:23.510Z,71.9
2018-06-27T08:26:04.136Z,70.35
2018-06-27T08:26:44.569Z,74.04
2018-06-27T08:27:25.105Z,72.19
2018-06-27T08:28:05.647Z,64.72
2018-06-27T08:28:46.182Z,70.54
2018-06-27T08:29:26.703Z,69.09
2018-06-27T08:30:07.243Z,65.59
2018-06-27T08:30:47.762Z,68.99
2018-06-27T08:31:28.310Z,71.51
2018-06-27T08:32:08.844Z,69.06
2018-06-27T08:32:49.366Z,63.65
2018-06-27T08:33:29.906Z,63.33
2018-06-27T08:34:10.430Z,66.14
2018-06-27T08:34:50.954Z,64.88
2018-06-27T08:35:31.484Z,62.39
2018-06-27T08:36:12.017Z,60.91
2018-06-27T08:36:52.552Z,60.13
2018-06-27T08:37:33.083Z,61.88
2018-06-27T08:38:13.610Z,60.81
2018-06-27T08:38:54.156Z,65.75
2018-06-27T08:39:34.677Z,69.34
2018-06-27T08:40:15.201Z,70.99
2018-06-27T08:40:55.715Z,71.67
2018-06-27T08:41:36.247Z,67.4
2018-06-27T08:42:16.799Z,69.44
2018-06-27T08:42:57.349Z,66.92
2018-06-27T08:43:37.908Z,68.47
2018-06-27T08:44:18.422Z,69.06
2018-06-27T08:44:58.955Z,67.24
2018-06-27T08:45:39.476Z,64.2
2018-06-27T08:46:20.023Z,66.44
2018-06-27T08:47:00.547Z,63.62
2018-06-27T08:47:41.087Z,61.98